createdAt,value
2022-10-02T00:02:22.594Z,10.50
2022-10-02T00:04:55.020Z,10.50
2022-10-02T00:07:29.772Z,10.60
2022-10-02T00:10:02.595Z,10.60
2022-10-02T00:12:31.355Z,10.60
2022-10-02T00:15:07.525Z,10.70
2022-10-02T00:17:43.678Z,10.70
2022-10-02T00:20:15.244Z,10.70
2022-10-02T00:22:50.981Z,10.80
2022-10-02T00:25:27.629Z,10.80
2022-10-02T00:28:11.212Z,10.80
2022-10-02T00:30:56.215Z,10.70
2022-10-02T00:33:30.637Z,10.70
2022-10-02T00:36:10.219Z,10.60
2022-10-02T00:38:50.586Z,10.60
2022-10-02T00:41:47.016Z,10.70
2022-10-02T00:44:31.534Z,10.70
2022-10-02T00:47:04.948Z,10.70
2022-10-02T00:49:54.722Z,10.70
2022-10-02T00:52:45.627Z,10.70
2022-10-02T00:55:29.550Z,10.70
2022-10-02T00:58:17.246Z,10.70
2022-10-02T01:00:56.697Z,10.70
2022-10-02T01:03:27.597Z,10.70
2022-10-02T01:05:55.566Z,10.70
2022-10-02T01:08:23.737Z,10.70
2022-10-02T01:10:52.031Z,10.70
2022-10-02T01:13:21.654Z,10.60
2022-10-02T01:15:54.577Z,10.60
2022-10-02T01:18:22.575Z,10.60
2022-10-02T01:20:53.613Z,10.60
2022-10-02T01:23:31.129Z,10.60
2022-10-02T01:26:00.705Z,10.60
2022-10-02T01:28:29.428Z,10.50
2022-10-02T01:31:02.051Z,10.50
2022-10-02T01:33:30.772Z,10.50
2022-10-02T01:36:01.922Z,10.40
2022-10-02T01:38:31.341Z,10.40
2022-10-02T01:41:00.714Z,10.40
2022-10-02T01:43:32.202Z,10.40
2022-10-02T01:46:15.024Z,10.40
2022-10-02T01:48:47.379Z,10.30
2022-10-02T01:51:32.333Z,10.30
2022-10-02T01:54:13.500Z,10.30
2022-10-02T01:56:50.013Z,10.40
2022-10-02T01:59:25.923Z,10.30
2022-10-02T02:02:06.500Z,10.30
2022-10-02T02:04:40.400Z,10.30
2022-10-02T02:07:15.115Z,10.20
2022-10-02T02:09:47.003Z,10.20
2022-10-02T02:12:22.957Z,10.20
2022-10-02T02:14:55.621Z,10.20
2022-10-02T02:17:32.523Z,10.20
2022-10-02T02:20:03.843Z,10.20
2022-10-02T02:22:36.989Z,10.20
2022-10-02T02:25:08.729Z,10.20
2022-10-02T02:27:49.154Z,10.20
2022-10-02T02:30:18.750Z,10.30
2022-10-02T02:32:50.650Z,10.30
2022-10-02T02:35:24.211Z,10.20
2022-10-02T02:37:56.602Z,10.30
2022-10-02T02:40:28.773Z,10.30
2022-10-02T02:43:02.962Z,10.20
2022-10-02T02:45:38.089Z,10.20
2022-10-02T02:48:10.208Z,10.20
2022-10-02T02:50:43.400Z,10.20
2022-10-02T02:53:17.247Z,10.10
2022-10-02T02:55:49.146Z,10.10
2022-10-02T02:58:21.621Z,10.10
2022-10-02T03:00:49.816Z,10.10
2022-10-02T03:03:18.180Z,10.10
2022-10-02T03:05:51.005Z,9.90
2022-10-02T03:08:23.724Z,10.00
2022-10-02T03:11:05.300Z,10.00
2022-10-02T03:13:47.653Z,9.90
2022-10-02T03:16:28.145Z,9.90
2022-10-02T03:19:09.183Z,9.90
2022-10-02T03:21:45.681Z,9.90
2022-10-02T03:24:19.833Z,9.80
2022-10-02T03:26:54.385Z,9.80
2022-10-02T03:29:29.749Z,9.80
2022-10-02T03:31:59.744Z,9.80
2022-10-02T03:34:28.223Z,9.80
2022-10-02T03:36:57.198Z,9.70
2022-10-02T03:39:26.243Z,9.70
2022-10-02T03:41:55.089Z,9.70
2022-10-02T03:44:24.668Z,9.70
2022-10-02T03:46:52.798Z,9.70
2022-10-02T03:49:20.890Z,9.70
2022-10-02T03:51:48.838Z,9.70
2022-10-02T03:54:19.426Z,9.70
2022-10-02T03:56:55.355Z,9.70
2022-10-02T03:59:35.949Z,9.80
2022-10-02T04:02:07.336Z,9.70
2022-10-02T04:04:47.202Z,9.80
2022-10-02T04:07:22.853Z,9.80
2022-10-02T04:10:00.620Z,9.80
2022-10-02T04:12:34.208Z,9.80
2022-10-02T04:15:08.217Z,9.80
2022-10-02T04:17:44.308Z,9.80
2022-10-02T04:20:19.253Z,9.90
2022-10-02T04:22:53.658Z,9.90
2022-10-02T04:25:24.032Z,9.90
2022-10-02T04:27:56.201Z,9.90
2022-10-02T04:30:25.650Z,9.90
2022-10-02T04:32:54.676Z,10.00
2022-10-02T04:35:30.501Z,10.00
2022-10-02T04:38:20.321Z,10.00
2022-10-02T04:41:02.277Z,10.20
2022-10-02T04:43:44.860Z,10.20
2022-10-02T04:46:39.065Z,10.20
2022-10-02T04:49:27.248Z,10.20
2022-10-02T04:52:25.266Z,10.30
2022-10-02T04:55:13.005Z,10.40
2022-10-02T04:57:58.228Z,10.50
2022-10-02T05:00:30.575Z,10.50
2022-10-02T05:03:14.034Z,10.50
2022-10-02T05:05:58.072Z,10.60
2022-10-02T05:08:51.025Z,10.60
2022-10-02T05:11:41.417Z,10.70
2022-10-02T05:14:39.297Z,10.70
2022-10-02T05:17:25.050Z,10.70
2022-10-02T05:20:07.818Z,10.60
2022-10-02T05:22:59.386Z,10.60
2022-10-02T05:26:00.025Z,10.60
2022-10-02T05:28:43.578Z,10.60
2022-10-02T05:31:19.030Z,10.70
2022-10-02T05:34:13.554Z,10.70
2022-10-02T05:37:01.869Z,10.70
2022-10-02T05:39:34.517Z,10.60
2022-10-02T05:42:09.267Z,10.60
2022-10-02T05:44:41.836Z,10.60
2022-10-02T05:47:14.556Z,10.70
2022-10-02T05:49:51.193Z,10.70
2022-10-02T05:52:25.095Z,10.70
2022-10-02T05:54:58.617Z,10.80
2022-10-02T05:57:32.526Z,10.80
2022-10-02T06:00:09.400Z,10.90
2022-10-02T06:02:53.973Z,11.00
2022-10-02T06:05:27.160Z,11.10
2022-10-02T06:07:59.876Z,11.30
2022-10-02T06:10:31.867Z,11.40
2022-10-02T06:13:06.056Z,11.60
2022-10-02T06:15:41.052Z,11.70
2022-10-02T06:18:13.081Z,11.60
2022-10-02T06:20:44.367Z,11.50
2022-10-02T06:23:17.759Z,11.40
2022-10-02T06:25:49.670Z,11.40
2022-10-02T06:28:25.221Z,11.40
2022-10-02T06:31:00.377Z,11.30
2022-10-02T06:33:31.215Z,11.40
2022-10-02T06:36:31.825Z,11.40
2022-10-02T06:39:22.321Z,11.40
2022-10-02T06:42:00.121Z,11.50
2022-10-02T06:44:37.121Z,11.50
2022-10-02T06:47:19.197Z,11.50
2022-10-02T06:50:02.872Z,11.60
2022-10-02T06:52:41.526Z,11.60
2022-10-02T06:55:29.521Z,11.60
2022-10-02T06:58:09.838Z,11.60
2022-10-02T07:00:45.747Z,11.60
2022-10-02T07:03:43.199Z,11.70
2022-10-02T07:06:44.567Z,11.70
2022-10-02T07:09:45.212Z,11.60
2022-10-02T07:12:33.402Z,11.60
2022-10-02T07:15:22.146Z,11.60
2022-10-02T07:18:02.111Z,11.60
2022-10-02T07:20:35.036Z,11.70
2022-10-02T07:23:36.599Z,11.80
2022-10-02T07:26:20.556Z,11.90
2022-10-02T07:28:59.253Z,12.10
2022-10-02T07:31:38.985Z,12.00
2022-10-02T07:34:22.184Z,12.00
2022-10-02T07:36:57.719Z,12.10
2022-10-02T07:39:40.704Z,12.20
2022-10-02T07:42:37.443Z,12.30
2022-10-02T07:45:28.530Z,12.50
2022-10-02T07:48:23.055Z,12.70
2022-10-02T07:51:04.108Z,12.80
2022-10-02T07:53:41.326Z,12.90
2022-10-02T07:56:20.799Z,12.90
2022-10-02T07:58:53.174Z,13.00
2022-10-02T08:01:26.190Z,13.10
2022-10-02T08:03:59.190Z,13.20
2022-10-02T08:06:27.908Z,13.30
2022-10-02T08:09:01.095Z,13.40
2022-10-02T08:11:33.144Z,13.60
2022-10-02T08:14:07.416Z,13.60
2022-10-02T08:16:41.483Z,13.70
2022-10-02T08:19:15.904Z,13.90
2022-10-02T08:21:48.076Z,14.10
2022-10-02T08:24:22.337Z,14.30
2022-10-02T08:26:55.208Z,14.50
2022-10-02T08:29:25.940Z,14.60
2022-10-02T08:31:57.101Z,14.50
2022-10-02T08:34:26.422Z,14.80
2022-10-02T08:37:07.470Z,15.00
2022-10-02T08:39:53.516Z,15.20
2022-10-02T08:43:04.153Z,15.00
2022-10-02T08:46:02.564Z,14.90
2022-10-02T08:49:05.089Z,14.80
2022-10-02T08:52:01.889Z,14.70
2022-10-02T08:54:54.559Z,14.90
2022-10-02T08:57:54.483Z,15.10
2022-10-02T09:00:25.836Z,15.20
2022-10-02T09:03:45.716Z,15.30
2022-10-02T09:06:54.705Z,15.50
2022-10-02T09:09:58.799Z,15.50
2022-10-02T09:12:58.361Z,15.70
2022-10-02T09:15:42.320Z,15.80
2022-10-02T09:18:18.433Z,15.80
2022-10-02T09:21:26.267Z,15.80
2022-10-02T09:24:33.885Z,15.90
2022-10-02T09:27:40.967Z,15.70
2022-10-02T09:30:27.043Z,15.60
2022-10-02T09:33:34.764Z,15.70
2022-10-02T09:36:36.505Z,15.80
2022-10-02T09:39:32.305Z,15.70
2022-10-02T09:42:51.158Z,15.70
2022-10-02T09:45:54.098Z,15.60
2022-10-02T09:48:55.047Z,15.50
2022-10-02T09:52:02.460Z,15.50
2022-10-02T09:55:04.014Z,15.70
2022-10-02T09:58:09.227Z,16.00
2022-10-02T10:01:06.409Z,16.00
2022-10-02T10:04:08.268Z,16.00
2022-10-02T10:07:06.027Z,16.20
2022-10-02T10:09:57.642Z,16.40
2022-10-02T10:13:01.044Z,16.50
2022-10-02T10:16:08.206Z,16.30
2022-10-02T10:19:04.530Z,16.00
2022-10-02T10:22:06.975Z,15.70
2022-10-02T10:25:01.841Z,15.60
2022-10-02T10:28:06.300Z,15.40
2022-10-02T10:30:59.528Z,15.20
2022-10-02T10:34:03.633Z,15.00
2022-10-02T10:37:16.500Z,14.90
2022-10-02T10:40:24.948Z,14.80
2022-10-02T10:43:42.166Z,14.80
2022-10-02T10:46:45.046Z,15.20
2022-10-02T10:49:31.426Z,15.40
2022-10-02T10:52:14.014Z,15.50
2022-10-02T10:55:02.856Z,15.60
2022-10-02T10:57:44.862Z,15.50
2022-10-02T11:00:27.477Z,15.40
2022-10-02T11:03:31.364Z,15.20
2022-10-02T11:06:28.143Z,15.00
2022-10-02T11:09:19.829Z,15.00
2022-10-02T11:12:09.438Z,15.20
2022-10-02T11:14:51.426Z,15.30
2022-10-02T11:17:42.179Z,15.60
2022-10-02T11:20:35.313Z,16.10
2022-10-02T11:23:39.792Z,16.40
2022-10-02T11:26:44.051Z,16.60
2022-10-02T11:29:35.112Z,16.20
2022-10-02T11:32:21.082Z,15.80
2022-10-02T11:35:23.475Z,15.10
2022-10-02T11:38:10.277Z,14.40
2022-10-02T11:41:09.310Z,14.10
2022-10-02T11:43:59.656Z,13.90
2022-10-02T11:46:45.485Z,13.80
2022-10-02T11:50:00.141Z,13.90
2022-10-02T11:52:48.395Z,14.00
2022-10-02T11:55:35.167Z,14.20
2022-10-02T11:58:15.346Z,14.40
2022-10-02T12:01:08.832Z,14.60
2022-10-02T12:03:54.200Z,14.90
2022-10-02T12:06:37.555Z,15.00
2022-10-02T12:09:16.364Z,15.00
2022-10-02T12:11:49.329Z,15.00
2022-10-02T12:14:35.636Z,15.00
2022-10-02T12:17:18.410Z,15.10
2022-10-02T12:20:20.400Z,15.20
2022-10-02T12:23:15.723Z,15.40
2022-10-02T12:26:08.594Z,15.60
2022-10-02T12:28:47.361Z,15.70
2022-10-02T12:31:25.056Z,15.90
2022-10-02T12:34:01.253Z,16.00
2022-10-02T12:36:49.741Z,15.70
2022-10-02T12:39:37.344Z,15.40
2022-10-02T12:42:16.521Z,15.50
2022-10-02T12:45:16.442Z,15.60
2022-10-02T12:48:18.368Z,15.50
2022-10-02T12:51:09.208Z,15.40
2022-10-02T12:54:12.667Z,15.40
2022-10-02T12:56:59.415Z,15.40
2022-10-02T12:59:37.815Z,15.50
2022-10-02T13:02:59.647Z,15.70
2022-10-02T13:06:03.560Z,15.90
2022-10-02T13:08:48.355Z,16.00
2022-10-02T13:11:29.101Z,15.80
2022-10-02T13:14:29.875Z,15.70
2022-10-02T13:17:17.651Z,15.60
2022-10-02T13:19:56.143Z,15.60
2022-10-02T13:22:36.066Z,15.70
2022-10-02T13:25:23.664Z,15.70
2022-10-02T13:28:01.500Z,15.70
2022-10-02T13:30:36.220Z,15.60
2022-10-02T13:33:18.692Z,15.50
2022-10-02T13:36:00.499Z,15.60
2022-10-02T13:38:51.666Z,15.60
2022-10-02T13:41:34.490Z,15.60
2022-10-02T13:44:08.713Z,15.50
2022-10-02T13:46:51.896Z,15.40
2022-10-02T13:49:33.752Z,15.40
2022-10-02T13:52:12.697Z,15.30
2022-10-02T13:54:54.549Z,15.30
2022-10-02T13:57:42.660Z,15.20
2022-10-02T14:00:23.586Z,15.30
2022-10-02T14:03:05.867Z,15.40
2022-10-02T14:05:43.256Z,15.40
2022-10-02T14:08:32.084Z,15.50
2022-10-02T14:11:17.081Z,15.60
2022-10-02T14:14:03.225Z,15.70
2022-10-02T14:16:43.043Z,15.80
2022-10-02T14:19:24.502Z,15.90
2022-10-02T14:22:06.098Z,16.00
2022-10-02T14:25:03.924Z,16.20
2022-10-02T14:28:05.243Z,16.20
2022-10-02T14:30:50.555Z,16.20
2022-10-02T14:33:28.101Z,16.10
2022-10-02T14:36:07.178Z,16.10
2022-10-02T14:38:49.623Z,16.20
2022-10-02T14:41:38.230Z,16.10
2022-10-02T14:44:28.522Z,16.10
2022-10-02T14:47:18.905Z,16.00
2022-10-02T14:50:23.314Z,15.90
2022-10-02T14:53:14.378Z,15.90
2022-10-02T14:56:09.819Z,15.90
2022-10-02T14:58:51.664Z,15.80
2022-10-02T15:01:24.370Z,15.70
2022-10-02T15:04:26.172Z,15.60
2022-10-02T15:07:05.431Z,15.60
2022-10-02T15:09:43.487Z,15.60
2022-10-02T15:12:17.347Z,15.60
2022-10-02T15:14:57.225Z,15.60
2022-10-02T15:17:53.648Z,15.50
2022-10-02T15:20:33.593Z,15.40
2022-10-02T15:23:03.334Z,15.20
2022-10-02T15:25:52.736Z,15.20
2022-10-02T15:28:37.973Z,15.20
2022-10-02T15:31:17.098Z,15.20
2022-10-02T15:33:56.721Z,15.20
2022-10-02T15:36:40.404Z,15.20
2022-10-02T15:39:33.817Z,15.20
2022-10-02T15:42:06.854Z,15.30
2022-10-02T15:45:03.753Z,15.30
2022-10-02T15:47:57.923Z,15.40
2022-10-02T15:50:38.485Z,15.40
2022-10-02T15:53:27.079Z,15.30
2022-10-02T15:56:00.645Z,15.10
2022-10-02T15:58:42.262Z,15.00
2022-10-02T16:01:31.300Z,15.00
2022-10-02T16:04:14.793Z,14.80
2022-10-02T16:07:19.429Z,14.70
2022-10-02T16:10:01.589Z,14.60
2022-10-02T16:12:54.204Z,14.50
2022-10-02T16:15:26.480Z,14.40
2022-10-02T16:18:16.460Z,14.30
2022-10-02T16:21:08.977Z,14.20
2022-10-02T16:23:55.425Z,14.10
2022-10-02T16:26:37.981Z,14.00
2022-10-02T16:29:20.965Z,13.90
2022-10-02T16:32:03.259Z,13.80
2022-10-02T16:34:43.368Z,13.80
2022-10-02T16:37:24.287Z,13.70
2022-10-02T16:40:01.302Z,13.70
2022-10-02T16:42:46.772Z,13.60
2022-10-02T16:45:43.115Z,13.60
2022-10-02T16:48:16.033Z,13.50
2022-10-02T16:50:53.286Z,13.40
2022-10-02T16:53:27.213Z,13.40
2022-10-02T16:56:07.548Z,13.40
2022-10-02T16:58:46.186Z,13.40
2022-10-02T17:01:27.219Z,13.30
2022-10-02T17:04:23.604Z,13.30
2022-10-02T17:06:58.116Z,13.20
2022-10-02T17:09:33.241Z,13.10
2022-10-02T17:12:10.958Z,13.00
2022-10-02T17:14:46.726Z,13.00
2022-10-02T17:17:23.075Z,12.90
2022-10-02T17:19:54.967Z,12.80
2022-10-02T17:22:33.094Z,12.80
2022-10-02T17:25:16.772Z,12.70
2022-10-02T17:27:54.318Z,12.70
2022-10-02T17:30:27.531Z,12.60
2022-10-02T17:33:07.913Z,12.50
2022-10-02T17:35:48.102Z,12.50
2022-10-02T17:38:54.119Z,12.50
2022-10-02T17:41:33.042Z,12.50
2022-10-02T17:44:13.674Z,12.50
2022-10-02T17:47:09.892Z,12.40
2022-10-02T17:49:47.176Z,12.40
2022-10-02T17:52:43.205Z,12.30
2022-10-02T17:55:52.842Z,12.30
2022-10-02T17:58:31.827Z,12.20
2022-10-02T18:01:09.587Z,12.20
2022-10-02T18:03:55.524Z,12.20
2022-10-02T18:06:35.888Z,12.20
2022-10-02T18:09:33.329Z,12.20
2022-10-02T18:12:22.045Z,12.10
2022-10-02T18:15:10.846Z,12.10
2022-10-02T18:17:53.062Z,12.10
2022-10-02T18:20:30.426Z,12.20
2022-10-02T18:23:20.264Z,12.20
2022-10-02T18:25:59.676Z,12.30
2022-10-02T18:29:06.762Z,12.20
2022-10-02T18:31:59.894Z,12.20
2022-10-02T18:34:43.599Z,12.10
2022-10-02T18:37:47.177Z,12.10
2022-10-02T18:40:24.828Z,12.00
2022-10-02T18:43:25.200Z,12.10
2022-10-02T18:46:04.428Z,12.00
2022-10-02T18:48:51.843Z,12.00
2022-10-02T18:51:36.250Z,12.00
2022-10-02T18:54:20.306Z,12.00
2022-10-02T18:57:05.448Z,12.00
2022-10-02T18:59:44.818Z,11.90
2022-10-02T19:02:34.795Z,11.90
2022-10-02T19:05:28.340Z,11.90
2022-10-02T19:08:11.211Z,11.90
2022-10-02T19:10:43.729Z,11.80
2022-10-02T19:13:23.107Z,11.70
2022-10-02T19:15:52.729Z,11.80
2022-10-02T19:18:23.001Z,11.80
2022-10-02T19:20:58.062Z,11.80
2022-10-02T19:23:34.606Z,11.80
2022-10-02T19:26:06.395Z,11.80
2022-10-02T19:28:46.346Z,11.80
2022-10-02T19:31:21.783Z,11.80
2022-10-02T19:33:54.856Z,11.70
2022-10-02T19:36:27.489Z,11.70
2022-10-02T19:39:01.372Z,11.70
2022-10-02T19:41:34.122Z,11.70
2022-10-02T19:44:06.629Z,11.70
2022-10-02T19:46:44.001Z,11.70
2022-10-02T19:49:22.552Z,11.60
2022-10-02T19:51:50.953Z,11.60
2022-10-02T19:54:26.167Z,11.60
2022-10-02T19:56:59.872Z,11.50
2022-10-02T19:59:31.518Z,11.50
2022-10-02T20:02:04.900Z,11.50
2022-10-02T20:04:33.276Z,11.50
2022-10-02T20:07:02.102Z,11.50
2022-10-02T20:09:37.068Z,11.50
2022-10-02T20:12:12.376Z,11.50
2022-10-02T20:14:44.730Z,11.50
2022-10-02T20:17:13.552Z,11.40
2022-10-02T20:19:50.772Z,11.40
2022-10-02T20:22:31.482Z,11.50
2022-10-02T20:25:07.453Z,11.50
2022-10-02T20:27:41.890Z,11.40
2022-10-02T20:30:14.189Z,11.40
2022-10-02T20:32:48.154Z,11.40
2022-10-02T20:35:21.233Z,11.30
2022-10-02T20:37:52.054Z,11.30
2022-10-02T20:40:25.452Z,11.40
2022-10-02T20:43:01.835Z,11.30
2022-10-02T20:45:37.545Z,11.30
2022-10-02T20:49:03.168Z,11.30
2022-10-02T20:54:47.356Z,11.30
2022-10-02T20:58:01.263Z,11.30
2022-10-02T21:00:46.808Z,11.30
2022-10-02T21:03:46.479Z,11.30
2022-10-02T21:06:46.780Z,11.20
2022-10-02T21:09:47.645Z,11.30
2022-10-02T21:13:02.657Z,11.20
2022-10-02T21:15:55.228Z,11.20
2022-10-02T21:18:40.458Z,11.20
2022-10-02T21:21:40.066Z,11.20
2022-10-02T21:24:31.486Z,11.20
2022-10-02T21:27:27.035Z,11.20
2022-10-02T21:30:11.151Z,11.20
2022-10-02T21:33:01.340Z,11.10
2022-10-02T21:35:45.103Z,11.10
2022-10-02T21:38:42.303Z,11.00
2022-10-02T21:41:38.089Z,11.00
2022-10-02T21:44:38.727Z,11.00
2022-10-02T21:47:28.613Z,11.00
2022-10-02T21:50:30.076Z,10.90
2022-10-02T21:53:24.999Z,10.90
2022-10-02T21:56:16.999Z,10.90
2022-10-02T21:59:30.570Z,10.90
2022-10-02T22:02:27.937Z,10.80
2022-10-02T22:05:29.682Z,10.80
2022-10-02T22:08:08.099Z,10.80
2022-10-02T22:10:44.896Z,10.80
2022-10-02T22:13:23.239Z,10.80
2022-10-02T22:16:04.040Z,10.90
2022-10-02T22:18:46.211Z,10.80
2022-10-02T22:21:41.746Z,10.70
2022-10-02T22:24:24.893Z,10.70
2022-10-02T22:27:01.311Z,10.70
2022-10-02T22:29:44.410Z,10.70
2022-10-02T22:32:44.653Z,10.70
2022-10-02T22:35:25.108Z,10.70
2022-10-02T22:38:05.643Z,10.70
2022-10-02T22:40:45.537Z,10.60
2022-10-02T22:43:21.346Z,10.60
2022-10-02T22:45:56.308Z,10.60
2022-10-02T22:48:34.639Z,10.60
2022-10-02T22:51:12.343Z,10.50
2022-10-02T22:53:47.859Z,10.50
2022-10-02T22:56:28.681Z,10.50
2022-10-02T22:59:03.210Z,10.50
2022-10-02T23:01:43.504Z,10.50
2022-10-02T23:04:22.359Z,10.50
2022-10-02T23:06:56.663Z,10.50
2022-10-02T23:09:31.032Z,10.50
2022-10-02T23:12:11.860Z,10.50
2022-10-02T23:14:48.611Z,10.50
2022-10-02T23:17:23.058Z,10.50
2022-10-02T23:19:56.426Z,10.50
2022-10-02T23:22:30.583Z,10.40
2022-10-02T23:25:05.386Z,10.40
2022-10-02T23:27:41.691Z,10.40
2022-10-02T23:30:18.340Z,10.40
2022-10-02T23:32:50.650Z,10.40
2022-10-02T23:35:26.773Z,10.40
2022-10-02T23:38:03.718Z,10.50
2022-10-02T23:40:48.138Z,10.50
2022-10-02T23:43:26.313Z,10.60
2022-10-02T23:46:02.440Z,10.60
2022-10-02T23:48:32.448Z,10.70
2022-10-02T23:51:15.865Z,10.70
2022-10-02T23:54:10.388Z,10.70
2022-10-02T23:57:01.166Z,10.80
2022-10-02T23:59:41.958Z,10.70
